Latest Weather Observations for Warwick

IDQ60801

Issued at 1:32 pm EST Saturday 29 April 2017 (issued every 30 minutes, with the page automatically refreshed every 10 minutes)

About weather observations | Map of weather stations | Latest weather observations for QLD | Other Formats
Station Details ID: 041525 Name: WARWICK Lat: -28.21 Lon: 152.10 Height: 475.4 m
Data from the previous 72 hours. | See also: Recent months at Warwick
Date/Time
EST
Temp
°C
App
Temp
°C
Dew
Point
°C
Rel
Hum
%
Delta-T
°C
Wind Press
QNH
hPa
Press
MSL
hPa
Rain since
9am
mm
Dir  Spd
km/h
Gust
km/h
Spd
kts
Gust
kts
29/01:30pm 21.8 20.4 9.4 45 6.8 W 7 13 4 7 1018.4 1016.9 0.0
29/01:00pm 21.2 20.4 8.1 43 7.0 E 2 11 1 6 1018.8 1017.3 0.0
29/12:30pm 20.8 18.9 9.0 46 6.4 SSW 9 17 5 9 1019.3 1017.8 0.0
29/12:00pm 20.6 18.7 7.4 42 6.9 SSE 7 13 4 7 1019.9 1018.3 0.0
29/11:30am 20.0 17.8 7.8 45 6.4 SSE 9 15 5 8 1020.3 1018.8 0.0
29/11:00am 19.4 17.0 7.0 44 6.4 SSE 9 17 5 9 1020.7 1019.2 0.0
29/10:30am 18.9 16.7 7.8 48 5.8 SE 9 19 5 10 1021.0 1019.5 0.0
29/10:00am 18.1 16.0 8.2 52 5.2 SSE 9 17 5 9 1021.2 1019.7 0.0
29/09:30am 17.2 14.7 8.2 55 4.7 SE 11 19 6 10 1021.4 1019.9 0.0
29/09:00am 15.8 15.4 9.6 66 3.3 SW 2 7 1 4 1021.5 1020.0 0.0
29/08:30am 14.3 14.0 10.2 76 2.2 SE 2 7 1 4 1021.3 1019.8 0.0
29/08:00am 12.9 13.0 10.3 84 1.4 CALM 0 0 0 0 1021.0 1019.5 0.0
29/07:30am 11.3 10.9 9.8 90 0.8 SSW 2 9 1 5 1020.6 1019.1 0.0
29/07:00am 10.1 10.0 9.3 95 0.4 CALM 0 7 0 4 1020.2 1018.7 0.0
29/06:30am 9.3 9.1 8.9 97 0.2 CALM 0 0 0 0 1019.6 1018.0 0.0
29/06:00am 8.8 8.5 8.6 99 0.1 CALM 0 0 0 0 1019.0 1017.5 0.0
29/05:30am 9.2 9.0 9.0 99 0.1 CALM 0 0 0 0 1018.9 1017.4 0.0
29/05:00am 9.4 9.2 9.0 97 0.2 CALM 0 0 0 0 1018.7 1017.2 0.0
29/04:30am 9.6 9.4 9.2 97 0.2 CALM 0 0 0 0 1018.4 1016.9 0.0
29/04:00am 10.4 10.4 9.8 96 0.3 CALM 0 0 0 0 1018.5 1017.0 0.0
29/03:30am 11.0 11.1 10.0 93 0.5 CALM 0 0 0 0 1018.4 1016.9 0.0
29/03:00am 11.4 10.7 10.1 92 0.7 WSW 4 7 2 4 1018.3 1016.8 0.0
29/02:30am 12.0 12.1 10.3 89 0.9 CALM 0 0 0 0 1018.4 1016.9 0.0
29/02:00am 13.1 11.9 10.3 83 1.5 SSE 7 11 4 6 1018.4 1016.9 0.0
29/01:30am 13.5 13.9 11.1 85 1.3 CALM 0 6 0 3 1018.7 1017.2 0.0
29/01:00am 14.3 14.6 11.0 80 1.8 CALM 0 0 0 0 1019.0 1017.5 0.0
29/12:30am 14.3 14.9 11.9 85 1.3 CALM 0 0 0 0 1019.1 1017.6 0.0
29/12:00am 14.6 15.2 11.9 84 1.5 CALM 0 4 0 2 1019.2 1017.7 0.0
 
Date/Time
EST
Temp
°C
App
Temp
°C
Dew
Point
°C
Rel
Hum
%
Delta-T
°C
Wind Press
QNH
hPa
Press
MSL
hPa
Rain since
9am
mm
Dir  Spd
km/h
Gust
km/h
Spd
kts
Gust
kts
28/11:30pm 15.0 15.0 11.1 77 2.1 SE 2 7 1 4 1019.5 1017.9 0.0
28/11:00pm 15.3 14.3 11.1 76 2.3 SSE 7 9 4 5 1019.5 1017.9 0.0
28/10:30pm 15.5 15.2 11.3 76 2.3 SSE 4 9 2 5 1019.7 1018.1 0.0
28/10:00pm 15.5 16.0 11.7 78 2.1 CALM 0 0 0 0 1019.8 1018.2 0.0
28/09:30pm 15.8 14.4 11.0 73 2.6 SSE 9 13 5 7 1019.9 1018.3 0.0
28/09:00pm 15.6 15.3 11.6 77 2.2 SSE 4 13 2 7 1019.8 1018.2 0.0
28/08:30pm 15.1 15.7 12.0 82 1.7 CALM 0 0 0 0 1019.6 1018.0 0.0
28/08:00pm 14.5 14.8 12.2 86 1.3 SSE 2 6 1 3 1019.5 1017.9 0.0
28/07:30pm 14.7 15.3 12.0 84 1.5 CALM 0 0 0 0 1019.1 1017.6 0.0
28/07:00pm 15.3 14.7 11.7 79 2.0 SSE 6 9 3 5 1018.8 1017.3 0.0
28/06:30pm 15.4 14.8 11.8 79 2.0 SSE 6 7 3 4 1018.3 1016.8 0.0
28/06:00pm 16.1 15.4 11.4 73 2.6 SSE 6 9 3 5 1018.2 1016.6 0.0
28/05:30pm 17.2 16.3 11.2 68 3.3 SSE 7 15 4 8 1017.9 1016.3 0.0
28/05:00pm 18.0 16.3 11.1 64 3.8 SSE 11 22 6 12 1017.6 1016.0 0.0
28/04:30pm 18.4 16.3 11.0 62 4.1 SSE 13 20 7 11 1017.3 1015.7 0.0
28/04:00pm 18.7 16.4 10.5 59 4.5 SSE 13 24 7 13 1017.0 1015.5 0.0
28/03:30pm 18.9 15.4 10.1 56 4.8 SE 19 28 10 15 1016.9 1015.4 0.0
28/03:00pm 18.9 15.7 10.1 56 4.8 SE 17 33 9 18 1016.8 1015.3 0.0
28/02:30pm 19.3 16.7 10.6 57 4.8 SSE 15 20 8 11 1016.6 1015.1 0.0
28/02:00pm 20.3 17.7 10.8 54 5.3 SSE 15 22 8 12 1016.3 1014.7 0.0
28/01:30pm 19.8 16.3 10.2 54 5.3 SE 19 32 10 17 1016.3 1014.7 0.0
28/01:00pm 20.3 16.1 9.9 51 5.7 SSE 22 41 12 22 1016.5 1015.0 0.0
28/12:30pm 19.9 15.2 9.4 50 5.7 SSE 24 43 13 23 1016.8 1015.3 0.0
28/12:00pm 19.7 15.3 9.1 50 5.7 SE 22 35 12 19 1017.1 1015.6 0.0
28/11:30am 19.1 15.3 9.0 52 5.4 SSE 19 35 10 19 1017.5 1015.9 0.0
28/11:00am 18.8 15.2 8.4 51 5.5 SSE 17 28 9 15 1017.9 1016.3 0.0
28/10:30am 17.8 14.9 8.0 52 5.1 SSE 13 24 7 13 1018.0 1016.4 0.0
28/10:00am 15.0 14.3 8.6 65 3.3 S 2 9 1 5 1018.2 1016.6 0.0
28/09:30am 12.6 12.2 8.3 75 2.2 CALM 0 6 0 3 1018.6 1017.1 0.0
28/09:00am 10.8 10.3 8.0 83 1.4 CALM 0 0 0 0 1018.5 1017.0 0.0
28/08:30am 8.1 7.4 7.1 93 0.5 CALM 0 0 0 0 1018.6 1017.1 0.0
28/08:00am 7.0 6.2 6.4 96 0.3 CALM 0 0 0 0 1018.3 1016.8 0.0
28/07:30am 6.5 5.6 6.1 97 0.2 CALM 0 0 0 0 1018.0 1016.4 0.0
28/07:00am 5.4 4.3 5.2 99 0.1 CALM 0 0 0 0 1017.6 1016.0 0.0
28/06:30am 4.6 3.4 4.6 100 0.0 CALM 0 0 0 0 1017.3 1015.7 0.0
28/06:00am 3.8 2.4 3.3 97 0.2 CALM 0 0 0 0 1017.0 1015.5 0.0
28/05:30am 5.2 4.1 5.0 99 0.1 CALM 0 0 0 0 1016.5 1015.0 0.0
28/05:00am 5.4 4.3 5.2 99 0.1 CALM 0 0 0 0 1016.2 1014.6 0.0
28/04:30am 5.2 4.0 4.7 97 0.2 CALM 0 0 0 0 1015.9 1014.3 0.0
28/04:00am 4.6 3.4 4.4 99 0.1 CALM 0 4 0 2 1015.7 1014.1 0.0
28/03:30am 5.6 4.5 5.2 97 0.2 CALM 0 0 0 0 1015.2 1013.6 0.0
28/03:00am 6.5 5.5 5.4 93 0.5 CALM 0 0 0 0 1015.3 1013.7 0.0
28/02:30am 6.0 3.8 5.3 95 0.3 NNE 6 7 3 4 1015.8 1014.2 0.0
28/02:00am 6.9 6.1 6.3 96 0.3 CALM 0 0 0 0 1015.9 1014.3 0.0
28/01:30am 7.7 7.0 7.1 96 0.3 CALM 0 0 0 0 1016.3 1014.7 0.0
28/01:00am 8.9 8.2 6.8 87 1.0 CALM 0 6 0 3 1016.7 1015.2 0.0
28/12:30am 9.9 7.8 6.6 80 1.6 WNW 7 11 4 6 1016.7 1015.2 0.0
28/12:00am 9.1 7.6 6.8 85 1.1 WNW 4 7 2 4 1016.9 1015.4 0.0
 
Date/Time
EST
Temp
°C
App
Temp
°C
Dew
Point
°C
Rel
Hum
%
Delta-T
°C
Wind Press
QNH
hPa
Press
MSL
hPa
Rain since
9am
mm
Dir  Spd
km/h
Gust
km/h
Spd
kts
Gust
kts
27/11:30pm 8.8 6.9 6.7 87 1.0 WNW 6 9 3 5 1017.3 1015.7 0.0
27/11:00pm 9.5 6.9 6.1 79 1.6 W 9 15 5 8 1017.3 1015.7 0.0
27/10:30pm 9.8 6.5 6.2 78 1.7 WNW 13 17 7 9 1017.3 1015.7 0.0
27/10:00pm 9.6 7.1 6.7 82 1.4 W 9 15 5 8 1017.3 1015.7 0.0
27/09:30pm 10.0 6.8 6.7 80 1.6 W 13 19 7 10 1017.1 1015.6 0.0
27/09:00pm 10.5 8.0 6.6 77 1.9 W 9 13 5 7 1017.3 1015.7 0.0
27/08:30pm 11.5 9.4 6.8 73 2.3 WNW 7 11 4 6 1017.1 1015.6 0.0
27/08:00pm 11.4 8.9 6.7 73 2.3 WNW 9 13 5 7 1016.9 1015.4 0.0
27/07:30pm 11.8 9.9 6.9 72 2.4 WNW 6 9 3 5 1016.4 1014.9 0.0
27/07:00pm 11.6 9.6 6.9 73 2.3 WNW 7 11 4 6 1016.2 1014.6 0.0
27/06:30pm 11.7 9.3 6.8 72 2.4 W 9 17 5 9 1015.8 1014.2 0.0
27/06:00pm 12.1 8.8 6.6 69 2.7 WSW 13 20 7 11 1015.5 1013.9 0.0
27/05:30pm 12.8 9.2 6.9 67 2.9 WSW 15 22 8 12 1014.8 1013.3 0.0
27/05:00pm 14.1 8.7 6.2 59 3.9 WSW 24 35 13 19 1014.5 1013.0 0.0
27/04:30pm 15.1 10.3 5.7 53 4.6 WSW 20 32 11 17 1013.8 1012.2 0.0
27/04:00pm 15.9 11.1 5.8 51 5.0 WSW 20 33 11 18 1013.7 1012.1 0.0
27/03:30pm 16.5 11.4 5.8 49 5.3 WSW 22 35 12 19 1013.5 1011.9 0.0
27/03:00pm 17.3 12.7 6.4 48 5.5 WSW 20 32 11 17 1013.2 1011.6 0.0
27/02:30pm 16.8 12.1 6.0 49 5.4 WSW 20 35 11 19 1013.1 1011.5 0.0
27/02:00pm 17.1 12.4 6.1 48 5.5 WSW 20 33 11 18 1012.9 1011.3 0.0
27/01:30pm 17.0 12.5 6.3 49 5.4 W 19 30 10 16 1013.0 1011.4 0.0
27/01:00pm 17.0 12.5 6.0 48 5.5 W 19 32 10 17 1013.3 1011.7 0.0
27/12:30pm 16.4 12.2 5.7 49 5.3 W 17 26 9 14 1013.6 1012.0 0.0
27/12:00pm 15.6 11.5 6.1 53 4.7 WSW 17 26 9 14 1013.9 1012.3 0.0
27/11:30am 15.6 11.5 6.1 53 4.7 W 17 24 9 13 1014.5 1013.0 0.0
27/11:00am 14.7 11.3 5.9 55 4.3 W 13 22 7 12 1015.1 1013.5 0.0
27/10:30am 14.4 11.1 6.3 58 4.0 WSW 13 20 7 11 1015.2 1013.6 0.0
27/10:00am 13.3 10.3 5.9 61 3.6 WSW 11 19 6 10 1015.3 1013.7 0.0
27/09:30am 12.3 9.3 5.9 65 3.1 WSW 11 17 6 9 1015.4 1013.8 0.0
27/09:00am 11.6 8.1 5.5 66 2.9 SW 13 20 7 11 1015.1 1013.5 8.8
27/08:30am 10.6 7.2 6.0 73 2.2 WSW 13 22 7 12 1014.7 1013.2 8.8
27/08:00am 9.4 5.9 5.3 75 1.9 W 13 26 7 14 1014.8 1013.3 8.8
27/07:30am 8.8 5.6 5.3 79 1.6 W 11 15 6 8 1014.6 1013.1 8.8
27/07:00am 8.0 5.2 5.2 82 1.3 W 9 15 5 8 1014.4 1012.8 8.8
27/06:30am 7.4 4.5 4.7 83 1.2 WNW 9 13 5 7 1014.0 1012.4 8.8
27/06:00am 6.3 3.8 4.7 89 0.7 W 7 11 4 6 1013.9 1012.3 8.8
27/05:30am 7.0 4.6 5.2 88 0.8 W 7 11 4 6 1014.0 1012.4 8.8
27/05:00am 7.4 5.2 5.4 87 0.9 W 6 9 3 5 1013.9 1012.3 8.8
27/04:30am 8.0 5.7 5.6 85 1.1 W 7 9 4 5 1014.0 1012.4 8.8
27/04:00am 8.2 5.5 5.8 85 1.1 W 9 13 5 7 1013.7 1012.1 8.8
27/03:30am 9.2 6.6 6.0 80 1.5 WNW 9 17 5 9 1013.6 1012.0 8.8
27/03:00am 9.0 6.4 6.0 81 1.4 W 9 13 5 7 1013.4 1011.8 8.8
27/02:30am 10.2 7.0 5.3 71 2.3 W 11 15 6 8 1013.6 1012.0 8.8
27/02:00am 10.7 7.6 5.4 70 2.5 WNW 11 15 6 8 1013.8 1012.2 8.8
27/01:30am 10.7 8.4 5.6 71 2.4 WNW 7 11 4 6 1013.6 1012.0 8.8
27/01:00am 10.9 8.8 6.6 75 2.1 W 7 13 4 7 1013.5 1011.9 8.8
27/12:30am 11.0 9.2 8.0 82 1.5 W 7 11 4 6 1013.6 1012.0 8.8
27/12:00am 12.0 9.1 8.0 76 2.0 WSW 13 19 7 10 1013.6 1012.0 8.8
 
Date/Time
EST
Temp
°C
App
Temp
°C
Dew
Point
°C
Rel
Hum
%
Delta-T
°C
Wind Press
QNH
hPa
Press
MSL
hPa
Rain since
9am
mm
Dir  Spd
km/h
Gust
km/h
Spd
kts
Gust
kts
26/11:30pm 12.9 9.6 8.2 73 2.4 WSW 15 26 8 14 1013.3 1011.7 8.8
26/11:00pm 13.4 10.8 9.2 76 2.2 WSW 13 22 7 12 1013.1 1011.5 8.8
26/10:30pm 13.7 11.8 9.1 74 2.4 W 9 17 5 9 1012.8 1011.2 8.8
26/10:00pm 14.5 11.8 8.9 69 2.9 WSW 13 20 7 11 1012.6 1011.0 8.8
26/09:30pm 14.6 12.4 9.5 71 2.7 W 11 20 6 11 1012.5 1010.9 8.8
26/09:00pm 15.3 12.0 9.7 69 3.0 W 17 24 9 13 1012.3 1010.7 8.8
26/08:30pm 15.5 13.4 11.3 76 2.3 W 13 24 7 13 1012.2 1010.6 8.8
26/08:00pm 15.9 14.5 13.3 84 1.5 W 13 24 7 13 1011.9 1010.3 8.8
26/07:30pm 16.1 15.0 14.2 88 1.1 W 13 26 7 14 1011.6 1010.0 8.8
26/07:00pm 16.3 15.3 14.6 90 1.0 W 13 22 7 12 1011.4 1009.8 8.8
26/06:30pm 16.3 14.2 14.6 90 1.0 W 19 32 10 17 1011.1 1009.5 8.8
26/06:00pm 16.4 15.4 15.7 96 0.4 WNW 15 37 8 20 1010.8 1009.1 7.8
26/05:30pm 17.3 16.5 15.1 87 1.3 NNW 13 20 7 11 1010.0 1008.4 6.4
26/05:00pm 17.8 17.3 14.9 83 1.7 NW 11 19 6 10 1009.9 1008.3 6.4
26/04:30pm 17.6 15.9 14.7 83 1.7 WNW 17 24 9 13 1009.9 1008.3 6.4
26/04:00pm 17.6 15.6 13.8 78 2.2 NW 17 24 9 13 1009.8 1008.2 6.4
26/03:30pm 18.0 15.7 14.1 78 2.3 WNW 19 28 10 15 1010.0 1008.4 6.4
26/03:00pm 18.3 16.5 15.6 84 1.6 W 19 33 10 18 1010.0 1008.4 6.4
26/02:30pm 18.3 18.7 17.2 93 0.7 WNW 11 24 6 13 1010.0 1008.4 6.4
26/02:00pm 17.8 18.2 17.2 96 0.4 WNW 11 19 6 10 1010.1 1008.5 6.2

Other Formats:

Comma delimited format used in spreadsheet applications
http://www.bom.gov.au/fwo/IDQ60801/IDQ60801.94555.axf

JavaScript Object Notation format (JSON) in row-major order
http://www.bom.gov.au/fwo/IDQ60801/IDQ60801.94555.json